Time;durP1;ratioP1;P1;durP2;ratioP2;P2;SDS_P1;SDS_P2;PMS_P1;PMS_P2;Temp;Humidity;BMP_temperature;BMP_pressure;BME280_temperature;BME280_humidity;BME280_pressure;Samples;Min_cycle;Max_cycle;Signal;HPM_P1;HPM_P2
2022/06/12 00:02:20;;;;;;;7.55;5.93;;;28.10;1.00;;;;;;5088594;28;20067;-52
2022/06/12 00:04:52;;;;;;;7.78;5.53;;;28.10;1.00;;;;;;5080335;28;20504;-53
2022/06/12 00:07:18;;;;;;;5.55;4.95;;;27.90;1.00;;;;;;5073743;28;20028;-51
2022/06/12 00:09:44;;;;;;;8.20;5.18;;;27.90;1.00;;;;;;5075461;28;20027;-50
2022/06/12 00:12:10;;;;;;;6.78;5.53;;;27.80;1.00;;;;;;5072472;28;20048;-49
2022/06/12 00:14:36;;;;;;;6.50;5.53;;;27.90;1.00;;;;;;5074946;28;20020;-52
2022/06/12 00:17:02;;;;;;;8.23;5.38;;;27.80;1.00;;;;;;5073121;28;20478;-50
2022/06/12 00:19:30;;;;;;;9.23;5.53;;;27.80;1.00;;;;;;5081346;28;20024;-53
2022/06/12 00:21:57;;;;;;;7.65;5.53;;;27.70;1.00;;;;;;5074900;28;20063;-53
2022/06/12 00:24:23;;;;;;;10.10;5.75;;;27.70;1.00;;;;;;5072748;28;20075;-53
2022/06/12 00:26:53;;;;;;;7.57;5.40;;;27.60;1.00;;;;;;5076494;28;20028;-50
2022/06/12 00:29:25;;;;;;;6.28;5.18;;;27.70;1.00;;;;;;5072254;28;20043;-51
2022/06/12 00:31:58;;;;;;;6.45;5.10;;;27.50;1.00;;;;;;5072177;28;20032;-53
2022/06/12 00:34:28;;;;;;;5.85;4.90;;;27.40;1.00;;;;;;5071963;28;20016;-52
2022/06/12 00:36:54;;;;;;;7.70;4.97;;;27.60;1.00;;;;;;5077948;28;20054;-52
2022/06/12 00:39:21;;;;;;;7.40;4.88;;;27.60;1.00;;;;;;5070906;28;20364;-49
2022/06/12 00:41:50;;;;;;;8.18;5.07;;;27.50;1.00;;;;;;5074017;28;20028;-50
2022/06/12 00:44:18;;;;;;;6.95;4.95;;;27.40;1.00;;;;;;5075698;28;20024;-50
2022/06/12 00:46:57;;;;;;;9.32;5.18;;;27.70;1.00;;;;;;5087234;28;20032;-52
2022/06/12 00:49:34;;;;;;;6.80;5.35;;;27.40;1.00;;;;;;5087009;28;20024;-49
2022/06/12 00:52:12;;;;;;;7.70;4.65;;;27.20;1.00;;;;;;5075630;28;20025;-48
2022/06/12 00:54:41;;;;;;;5.70;5.05;;;27.30;1.00;;;;;;5076230;28;20024;-53
2022/06/12 00:57:09;;;;;;;5.40;4.68;;;27.50;1.00;;;;;;5064402;28;20123;-52
2022/06/12 00:59:39;;;;;;;6.07;4.68;;;27.40;1.00;;;;;;5075464;28;20370;-52
2022/06/12 01:02:09;;;;;;;6.60;5.00;;;27.40;1.00;;;;;;5095462;28;20230;-51
2022/06/12 01:07:23;;;;;;;10.20;5.57;;;27.20;1.00;;;;;;5089868;28;20062;-53
2022/06/12 01:09:51;;;;;;;9.02;5.15;;;27.20;1.00;;;;;;5077306;28;20029;-50
2022/06/12 01:12:21;;;;;;;6.05;4.28;;;27.20;1.00;;;;;;5089975;28;20108;-51
2022/06/12 01:14:53;;;;;;;5.80;4.60;;;27.20;1.00;;;;;;5079958;28;20047;-48
2022/06/12 01:17:21;;;;;;;5.70;4.18;;;27.20;1.00;;;;;;5065267;28;20070;-47
2022/06/12 01:19:51;;;;;;;6.50;4.43;;;27.30;1.00;;;;;;5058157;28;20366;-51
2022/06/12 01:22:58;;;;;;;4.57;3.95;;;27.00;1.00;;;;;;5091893;28;20052;-51
2022/06/12 01:25:45;;;;;;;7.18;4.28;;;27.00;1.00;;;;;;5040038;28;20036;-47
2022/06/12 01:28:46;;;;;;;5.95;3.88;;;26.90;1.00;;;;;;5086016;28;20107;-47
2022/06/12 01:31:33;;;;;;;6.18;4.10;;;26.90;1.00;;;;;;5084835;28;20075;-48
2022/06/12 01:34:19;;;;;;;6.80;3.78;;;26.90;1.00;;;;;;5079567;28;20532;-47
2022/06/12 01:37:16;;;;;;;6.05;4.03;;;26.90;1.00;;;;;;5091314;28;20052;-53
2022/06/12 01:40:05;;;;;;;7.72;5.15;;;26.90;1.00;;;;;;5093444;28;20133;-49
2022/06/12 01:42:59;;;;;;;4.85;3.60;;;26.70;1.00;;;;;;5092330;28;20036;-46
2022/06/12 01:45:44;;;;;;;6.00;4.13;;;26.80;1.00;;;;;;5074293;28;20021;-49
2022/06/12 01:48:28;;;;;;;4.57;3.90;;;26.80;1.00;;;;;;5074358;28;20031;-53
2022/06/12 01:50:56;;;;;;;;;;;26.70;1.00;;;;;;5059092;28;20024;-52
2022/06/12 01:53:50;;;;;;;5.80;3.35;;;26.60;1.00;;;;;;5090265;28;19910;-52
2022/06/12 01:56:21;;;;;;;3.57;3.27;;;26.70;1.00;;;;;;5077156;28;20039;-51
2022/06/12 01:58:53;;;;;;;8.30;3.78;;;26.70;1.00;;;;;;5074412;28;20266;-52
2022/06/12 02:01:25;;;;;;;4.70;3.50;;;26.70;1.00;;;;;;5078073;28;20028;-50
2022/06/12 02:04:29;;;;;;;4.22;3.60;;;26.80;1.00;;;;;;5088327;28;20044;-52
2022/06/12 02:07:10;;;;;;;3.90;3.25;;;26.70;1.00;;;;;;5041363;28;20044;-52
2022/06/12 02:09:41;;;;;;;4.95;3.55;;;26.60;1.00;;;;;;5080603;28;20024;-49
2022/06/12 02:15:25;;;;;;;5.93;3.55;;;26.90;1.00;;;;;;5074780;28;20101;-47
2022/06/12 02:17:56;;;;;;;3.50;3.13;;;26.70;1.00;;;;;;5075910;28;20035;-50
2022/06/12 02:20:27;;;;;;;3.50;3.17;;;26.60;1.00;;;;;;5077552;28;20470;-46
2022/06/12 02:22:54;;;;;;;4.90;2.95;;;26.70;1.00;;;;;;5058172;28;20025;-51
2022/06/12 02:25:34;;;;;;;5.07;3.28;;;26.50;1.00;;;;;;5077240;28;20020;-50
2022/06/12 02:28:07;;;;;;;5.85;3.30;;;26.50;1.00;;;;;;5076169;28;20421;-47
2022/06/12 02:30:48;;;;;;;5.03;3.58;;;26.50;1.00;;;;;;5079204;28;20027;-47
2022/06/12 02:33:25;;;;;;;4.03;3.38;;;26.50;1.00;;;;;;5056807;28;20049;-48
2022/06/12 02:36:00;;;;;;;3.90;2.88;;;26.50;1.00;;;;;;5081169;28;20028;-48
2022/06/12 02:38:59;;;;;;;3.72;2.80;;;26.40;1.00;;;;;;5078310;28;20024;-47
2022/06/12 02:41:53;;;;;;;6.43;3.10;;;26.40;1.00;;;;;;5072333;28;20488;-47
2022/06/12 02:44:28;;;;;;;4.43;3.17;;;26.30;1.00;;;;;;5073901;28;20025;-49
2022/06/12 02:47:24;;;;;;;4.57;2.85;;;26.20;1.00;;;;;;5086405;28;20101;-46
2022/06/12 02:49:52;;;;;;;4.53;3.00;;;26.40;1.00;;;;;;5074207;28;20494;-46
2022/06/12 02:52:45;;;;;;;6.15;3.05;;;26.30;1.00;;;;;;5078266;28;20354;-45
2022/06/12 02:55:45;;;;;;;5.32;3.55;;;26.20;1.00;;;;;;5092062;28;20036;-49
2022/06/12 02:58:20;;;;;;;4.90;3.42;;;26.30;1.00;;;;;;5074003;28;20389;-45
2022/06/12 03:00:58;;;;;;;5.68;3.10;;;26.20;1.00;;;;;;5091950;28;20114;-46
2022/06/12 03:03:51;;;;;;;3.35;2.92;;;26.20;1.00;;;;;;5091910;28;20051;-50
2022/06/12 03:06:17;;;;;;;4.07;3.05;;;26.30;1.00;;;;;;5081980;28;20378;-51
2022/06/12 03:08:47;;;;;;;3.58;2.83;;;26.30;1.00;;;;;;5090529;28;20073;-49
2022/06/12 03:11:27;;;;;;;4.32;3.05;;;26.20;1.00;;;;;;5082334;28;20028;-48
2022/06/12 03:13:55;;;;;;;5.25;3.20;;;26.10;1.00;;;;;;5075570;28;20024;-50
2022/06/12 03:16:25;;;;;;;4.65;3.00;;;26.10;1.00;;;;;;5082774;28;20050;-49
2022/06/12 03:18:59;;;;;;;4.38;2.70;;;26.10;1.00;;;;;;5076574;28;20027;-47
2022/06/12 03:21:41;;;;;;;4.13;2.80;;;26.10;1.00;;;;;;5073606;28;20110;-48
2022/06/12 03:24:19;;;;;;;5.47;3.72;;;25.90;1.00;;;;;;5077669;28;20024;-50
2022/06/12 03:27:09;;;;;;;3.33;2.53;;;26.00;1.00;;;;;;5081699;28;20032;-51
2022/06/12 03:29:35;;;;;;;3.22;2.92;;;25.90;1.00;;;;;;5079212;28;20012;-50
2022/06/12 03:32:29;;;;;;;4.50;2.63;;;25.90;1.00;;;;;;5091657;28;20108;-45
2022/06/12 03:34:55;;;;;;;4.68;2.67;;;25.90;1.00;;;;;;5073703;28;20098;-49
2022/06/12 03:44:23;;;;;;;6.30;3.00;;;25.80;1.00;;;;;;5075785;28;20034;-48
2022/06/12 03:47:12;;;;;;;5.63;2.83;;;25.90;1.00;;;;;;5081509;28;20020;-49
2022/06/12 03:49:47;;;;;;;5.25;2.70;;;26.00;1.00;;;;;;5086570;28;20031;-49
2022/06/12 03:52:15;;;;;;;5.22;2.70;;;25.90;1.00;;;;;;5072748;28;20062;-47
2022/06/12 03:55:05;;;;;;;4.53;2.40;;;25.90;1.00;;;;;;5089775;28;20020;-48
2022/06/12 03:57:58;;;;;;;3.85;2.70;;;25.80;1.00;;;;;;5082679;28;20041;-48
2022/06/12 04:00:40;;;;;;;3.58;2.67;;;25.80;1.00;;;;;;5079210;28;20489;-49
2022/06/12 04:03:27;;;;;;;3.38;2.47;;;26.00;1.00;;;;;;5077700;28;20045;-50
2022/06/12 04:06:03;;;;;;;4.32;3.22;;;25.90;1.00;;;;;;5092931;28;20024;-49
2022/06/12 04:08:39;;;;;;;3.58;2.95;;;25.80;1.00;;;;;;5085110;28;20020;-51
2022/06/12 04:11:10;;;;;;;5.55;3.15;;;25.70;1.00;;;;;;5084692;28;20032;-49
2022/06/12 04:13:37;;;;;;;4.75;3.05;;;25.90;1.00;;;;;;5092980;28;20547;-49
2022/06/12 04:16:31;;;;;;;5.95;3.15;;;25.90;1.00;;;;;;5096636;28;20374;-49
2022/06/12 04:19:05;;;;;;;5.65;2.72;;;26.00;1.00;;;;;;5086015;28;20084;-47
2022/06/12 04:21:38;;;;;;;5.00;2.80;;;26.00;1.00;;;;;;5083218;28;20498;-47
2022/06/12 04:24:07;;;;;;;10.87;3.33;;;25.80;1.00;;;;;;5066560;28;20031;-51
2022/06/12 04:26:39;;;;;;;4.85;2.50;;;25.80;1.00;;;;;;5076353;28;20032;-50
2022/06/12 04:29:10;;;;;;;3.95;2.78;;;25.90;1.00;;;;;;5094369;28;20496;-47
2022/06/12 04:31:37;;;;;;;5.10;2.80;;;25.80;1.00;;;;;;5082255;28;20417;-47
2022/06/12 04:34:15;;;;;;;4.95;2.88;;;25.80;1.00;;;;;;5090132;28;20461;-46
2022/06/12 04:36:44;;;;;;;5.35;2.70;;;25.90;1.00;;;;;;5084473;28;20037;-46
2022/06/12 04:39:12;;;;;;;3.78;2.42;;;25.80;1.00;;;;;;5091235;28;20024;-46
2022/06/12 04:41:38;;;;;;;3.42;2.47;;;26.00;1.00;;;;;;5085435;28;20103;-46
2022/06/12 04:44:05;;;;;;;3.00;2.70;;;25.90;1.00;;;;;;5086105;28;20064;-47
2022/06/12 04:46:33;;;;;;;3.03;2.55;;;26.00;1.00;;;;;;5087321;28;20103;-46
2022/06/12 04:48:59;;;;;;;5.43;2.88;;;25.90;1.00;;;;;;5088716;28;20023;-46
2022/06/12 04:51:25;;;;;;;4.15;2.38;;;25.90;1.00;;;;;;5088776;28;20593;-47
2022/06/12 04:53:52;;;;;;;4.15;2.58;;;25.80;1.00;;;;;;5087658;28;20107;-47
2022/06/12 04:56:19;;;;;;;3.00;2.38;;;26.00;1.00;;;;;;5057904;28;20028;-49
2022/06/12 04:58:45;;;;;;;2.17;2.00;;;26.00;1.00;;;;;;5094723;28;20022;-52
2022/06/12 05:01:12;;;;;;;5.18;2.67;;;26.10;1.00;;;;;;5082220;28;20047;-48
2022/06/12 05:03:38;;;;;;;2.78;2.40;;;26.20;1.00;;;;;;5084450;28;20048;-46
2022/06/12 05:06:04;;;;;;;4.28;2.42;;;26.10;1.00;;;;;;5084037;28;20035;-46
2022/06/12 05:08:32;;;;;;;5.85;2.65;;;26.20;1.00;;;;;;5083555;28;20378;-46
2022/06/12 05:10:58;;;;;;;3.28;2.20;;;26.30;1.00;;;;;;5085513;28;20052;-48
2022/06/12 05:13:23;;;;;;;2.40;1.98;;;26.10;1.00;;;;;;5085770;28;20066;-48
2022/06/12 05:15:49;;;;;;;3.95;2.50;;;26.20;1.00;;;;;;5087680;28;20071;-46
2022/06/12 05:18:18;;;;;;;2.88;2.55;;;26.10;1.00;;;;;;5080917;28;20385;-45
2022/06/12 05:20:45;;;;;;;4.32;2.45;;;26.30;1.00;;;;;;5063908;28;20058;-51
2022/06/12 05:23:11;;;;;;;4.47;2.88;;;26.20;1.00;;;;;;5086566;28;20365;-52
2022/06/12 05:25:37;;;;;;;3.47;2.72;;;26.20;1.00;;;;;;5076442;28;20028;-47
2022/06/12 05:28:03;;;;;;;3.25;2.28;;;26.40;1.00;;;;;;5080023;28;20085;-48
2022/06/12 05:30:31;;;;;;;4.85;2.60;;;26.40;1.00;;;;;;5075065;28;20508;-46
2022/06/12 05:32:59;;;;;;;2.78;2.28;;;26.40;1.00;;;;;;5077364;28;20020;-46
2022/06/12 05:35:27;;;;;;;3.42;2.30;;;26.40;1.00;;;;;;5087333;28;20028;-46
2022/06/12 05:37:52;;;;;;;2.83;2.08;;;26.50;1.00;;;;;;5089436;28;20111;-45
2022/06/12 05:40:22;;;;;;;5.05;2.08;;;26.60;1.00;;;;;;5084939;28;20038;-46
2022/06/12 05:42:48;;;;;;;4.18;2.40;;;26.30;1.00;;;;;;5090404;28;20480;-48
2022/06/12 05:45:16;;;;;;;5.22;2.80;;;26.40;1.00;;;;;;5093898;28;20036;-46
2022/06/12 05:47:52;;;;;;;3.38;2.45;;;26.40;1.00;;;;;;5076794;28;20405;-45
2022/06/12 05:50:20;;;;;;;3.15;2.40;;;26.40;1.00;;;;;;5083659;28;20028;-47
2022/06/12 05:52:46;;;;;;;2.53;2.20;;;26.40;1.00;;;;;;5074206;28;20470;-48
2022/06/12 05:55:12;;;;;;;4.10;2.42;;;26.40;1.00;;;;;;5067105;28;20021;-47
2022/06/12 05:57:38;;;;;;;2.20;1.98;;;26.60;1.00;;;;;;5074046;28;20037;-51
2022/06/12 06:00:08;;;;;;;2.42;2.22;;;26.60;1.00;;;;;;5086002;28;20376;-48
2022/06/12 06:02:34;;;;;;;2.65;2.13;;;26.70;1.00;;;;;;5087866;28;20044;-50
2022/06/12 06:05:01;;;;;;;2.92;2.05;;;26.80;1.00;;;;;;5086776;28;20441;-51
2022/06/12 06:07:27;;;;;;;2.22;2.03;;;26.60;1.00;;;;;;5085738;28;20063;-48
2022/06/12 06:09:52;;;;;;;2.35;2.03;;;26.50;1.00;;;;;;5091435;28;20052;-52
2022/06/12 06:12:18;;;;;;;2.67;2.25;;;26.70;1.00;;;;;;5084450;28;20096;-46
2022/06/12 06:14:44;;;;;;;2.40;1.83;;;26.70;1.00;;;;;;5087719;28;20024;-46
2022/06/12 06:17:09;;;;;;;2.72;1.95;;;26.80;1.00;;;;;;5068257;28;20068;-51
2022/06/12 06:19:35;;;;;;;4.03;2.00;;;26.80;1.00;;;;;;5073859;28;20020;-51
2022/06/12 06:22:01;;;;;;;3.60;1.85;;;27.00;1.00;;;;;;5074032;28;20028;-48
2022/06/12 06:24:26;;;;;;;2.35;1.90;;;26.90;1.00;;;;;;5062596;28;20024;-51
2022/06/12 06:26:52;;;;;;;2.20;1.95;;;27.00;1.00;;;;;;5081851;28;20032;-46
2022/06/12 06:29:18;;;;;;;2.80;1.88;;;26.80;1.00;;;;;;5092892;28;20111;-45
2022/06/12 06:31:43;;;;;;;2.45;2.20;;;26.90;1.00;;;;;;5064099;28;20031;-47
2022/06/12 06:34:09;;;;;;;2.13;1.90;;;26.80;1.00;;;;;;5082927;28;20054;-45
2022/06/12 06:36:35;;;;;;;2.85;1.77;;;27.10;1.00;;;;;;5093351;28;20024;-50
2022/06/12 06:39:01;;;;;;;2.30;1.80;;;27.00;1.00;;;;;;5084671;28;20024;-50
2022/06/12 06:41:27;;;;;;;2.63;1.90;;;27.00;1.00;;;;;;5081402;28;20032;-50
2022/06/12 06:46:38;;;;;;;2.80;2.13;;;27.10;1.00;;;;;;5073949;28;20047;-50
2022/06/12 06:49:05;;;;;;;3.35;1.95;;;27.20;1.00;;;;;;5077635;28;20024;-47
2022/06/12 06:51:31;;;;;;;3.13;2.00;;;27.10;1.00;;;;;;5073699;28;20024;-46
2022/06/12 06:53:58;;;;;;;2.65;2.15;;;27.10;1.00;;;;;;5062102;28;20039;-47
2022/06/12 06:56:24;;;;;;;4.65;1.80;;;27.10;1.00;;;;;;5050804;28;20405;-46
2022/06/12 06:58:50;;;;;;;2.58;1.98;;;27.30;1.00;;;;;;5078613;28;20024;-49
2022/06/12 07:01:16;;;;;;;2.22;1.55;;;27.30;1.00;;;;;;5073141;28;20054;-48
2022/06/12 07:03:45;;;;;;;2.30;2.10;;;27.40;1.00;;;;;;5077085;28;20121;-50
2022/06/12 07:06:12;;;;;;;2.72;1.83;;;27.40;1.00;;;;;;5074840;28;20390;-49
2022/06/12 07:08:37;;;;;;;2.97;2.38;;;27.40;1.00;;;;;;5079161;28;20035;-52
2022/06/12 07:11:03;;;;;;;3.58;2.03;;;27.40;1.00;;;;;;5085981;28;20028;-49
2022/06/12 07:13:29;;;;;;;5.82;2.63;;;27.50;1.00;;;;;;5075141;28;20089;-48
2022/06/12 07:15:55;;;;;;;2.10;1.95;;;27.50;1.00;;;;;;5078150;28;20478;-49
2022/06/12 07:18:21;;;;;;;2.58;2.38;;;27.40;1.00;;;;;;5073092;28;20021;-47
2022/06/12 07:20:54;;;;;;;2.55;2.35;;;27.30;1.00;;;;;;5093404;28;20028;-47
2022/06/12 07:23:23;;;;;;;2.27;2.00;;;27.50;1.00;;;;;;5081731;28;20506;-49
2022/06/12 07:25:54;;;;;;;3.20;2.55;;;27.50;1.00;;;;;;5080143;28;20035;-48
2022/06/12 07:28:22;;;;;;;4.30;2.20;;;27.60;1.00;;;;;;5085849;28;20494;-47
2022/06/12 07:30:50;;;;;;;3.10;2.17;;;27.80;1.00;;;;;;5079270;28;20449;-49
2022/06/12 07:33:16;;;;;;;2.08;1.98;;;28.00;1.00;;;;;;5072369;28;20050;-50
2022/06/12 07:35:43;;;;;;;2.00;1.80;;;28.00;1.00;;;;;;5070325;28;20012;-49
2022/06/12 07:38:12;;;;;;;2.90;1.88;;;27.90;1.00;;;;;;5080735;28;20132;-48
2022/06/12 07:40:42;;;;;;;2.50;1.77;;;28.00;1.00;;;;;;5087196;28;20024;-47
2022/06/12 07:43:08;;;;;;;1.42;1.38;;;28.10;1.00;;;;;;5064261;28;20429;-48
2022/06/12 07:45:35;;;;;;;5.80;2.15;;;28.30;1.00;;;;;;5074219;28;20032;-49
2022/06/12 07:48:01;;;;;;;2.80;2.20;;;28.20;1.00;;;;;;5075241;28;20052;-49
2022/06/12 07:50:27;;;;;;;3.15;2.47;;;28.20;1.00;;;;;;5078851;28;20071;-48
2022/06/12 07:52:52;;;;;;;7.35;2.47;;;28.20;1.00;;;;;;5076950;28;20474;-47
2022/06/12 07:55:19;;;;;;;2.42;2.22;;;28.20;1.00;;;;;;5065100;28;20029;-51
2022/06/12 07:57:45;;;;;;;4.25;2.20;;;28.30;1.00;;;;;;5076471;28;20037;-49
2022/06/12 08:00:13;;;;;;;5.38;2.28;;;28.20;1.00;;;;;;5079803;28;20067;-48
2022/06/12 08:02:41;;;;;;;2.50;1.77;;;28.20;1.00;;;;;;5076586;28;20035;-47
2022/06/12 08:05:07;;;;;;;2.60;2.03;;;28.30;1.00;;;;;;5080738;28;20025;-50
2022/06/12 08:07:34;;;;;;;2.65;2.10;;;28.30;1.00;;;;;;5078114;28;20402;-51
2022/06/12 08:10:00;;;;;;;2.50;2.22;;;28.40;1.00;;;;;;5081056;28;20074;-50
2022/06/12 08:12:26;;;;;;;2.55;2.35;;;28.20;1.00;;;;;;5076331;28;20020;-50
2022/06/12 08:14:53;;;;;;;3.40;2.22;;;28.20;1.00;;;;;;5081483;28;20029;-47
2022/06/12 08:17:19;;;;;;;3.55;2.28;;;28.30;1.00;;;;;;5088737;28;20043;-49
2022/06/12 08:22:28;;;;;;;5.40;2.28;;;28.10;1.00;;;;;;5075855;28;20048;-46
2022/06/12 08:24:54;;;;;;;3.20;2.03;;;28.10;1.00;;;;;;5082788;28;20021;-48
2022/06/12 08:27:20;;;;;;;3.03;2.72;;;28.20;1.00;;;;;;5076396;28;20032;-48
2022/06/12 08:29:45;;;;;;;3.90;2.85;;;28.10;1.00;;;;;;5083733;28;20099;-49
2022/06/12 08:32:16;;;;;;;2.50;2.03;;;28.10;1.00;;;;;;5069246;28;20028;-50
2022/06/12 08:34:48;;;;;;;2.20;1.98;;;28.20;1.00;;;;;;5086077;28;20052;-50
2022/06/12 08:37:30;;;;;;;1.90;1.80;;;28.10;1.00;;;;;;5075084;28;20577;-50
2022/06/12 08:39:57;;;;;;;2.05;1.80;;;28.30;1.00;;;;;;5087742;28;20051;-48
2022/06/12 08:42:41;;;;;;;3.67;2.45;;;28.10;1.00;;;;;;5082108;28;20046;-48
2022/06/12 08:45:29;;;;;;;2.47;2.25;;;28.20;1.00;;;;;;5093849;28;20025;-49
2022/06/12 08:48:32;;;;;;;5.72;3.10;;;28.20;1.00;;;;;;5088946;28;20078;-47
2022/06/12 08:51:11;;;;;;;6.25;2.70;;;28.20;1.00;;;;;;5094240;28;20027;-52
2022/06/12 08:53:46;;;;;;;3.67;2.75;;;28.20;1.00;;;;;;5075918;28;20020;-48
2022/06/12 08:56:18;;;;;;;2.90;2.60;;;28.30;1.00;;;;;;5094684;28;20040;-46
2022/06/12 08:58:55;;;;;;;2.75;2.53;;;28.30;1.00;;;;;;5089554;28;20477;-48
2022/06/12 09:01:21;;;;;;;2.80;2.60;;;28.40;1.00;;;;;;5089981;28;20103;-48
2022/06/12 09:03:50;;;;;;;4.43;2.70;;;28.40;1.00;;;;;;5085721;28;20170;-47
2022/06/12 09:06:38;;;;;;;3.47;2.90;;;28.50;1.00;;;;;;5090291;28;20394;-60
2022/06/12 09:09:07;;;;;;;6.55;3.42;;;28.60;1.00;;;;;;5083046;28;20068;-53
2022/06/12 09:11:39;;;;;;;6.65;2.83;;;28.50;1.00;;;;;;5087462;28;20036;-57
2022/06/12 09:14:29;;;;;;;3.90;2.88;;;28.60;1.00;;;;;;5084157;28;20047;-47
2022/06/12 09:17:21;;;;;;;3.67;3.47;;;28.80;1.00;;;;;;5079150;28;20040;-50
2022/06/12 09:20:09;;;;;;;2.95;2.70;;;28.90;1.00;;;;;;5065196;28;20449;-49
2022/06/12 09:23:03;;;;;;;3.95;2.80;;;28.90;1.00;;;;;;5089899;28;20137;-47
2022/06/12 09:25:40;;;;;;;;;;;28.70;1.00;;;;;;5080402;28;20036;-50
2022/06/12 09:28:12;;;;;;;3.38;2.63;;;29.00;1.00;;;;;;5089964;28;20397;-51
2022/06/12 09:30:46;;;;;;;2.75;2.53;;;28.90;1.00;;;;;;5081066;28;20044;-49
2022/06/12 09:33:21;;;;;;;3.33;2.67;;;29.00;1.00;;;;;;5088864;28;20089;-50
2022/06/12 09:36:08;;;;;;;3.15;2.65;;;29.10;1.00;;;;;;5084285;28;20119;-49
2022/06/12 09:38:45;;;;;;;2.75;2.55;;;29.10;1.00;;;;;;5075102;28;20117;-50
2022/06/12 09:41:36;;;;;;;2.60;2.30;;;29.10;1.00;;;;;;5074445;28;20130;-48
2022/06/12 09:44:18;;;;;;;4.10;3.35;;;29.00;1.00;;;;;;5075226;28;20040;-50
2022/06/12 09:47:14;;;;;;;3.40;2.47;;;29.00;1.00;;;;;;5085403;28;20111;-50
2022/06/12 09:49:57;;;;;;;2.90;2.60;;;29.20;1.00;;;;;;5082129;28;20350;-53
2022/06/12 09:52:41;;;;;;;3.38;3.00;;;29.00;1.00;;;;;;5084183;28;20474;-49
2022/06/12 09:55:33;;;;;;;2.63;2.42;;;29.10;1.00;;;;;;5088218;28;20457;-49
2022/06/12 09:58:08;;;;;;;4.93;2.85;;;29.10;1.00;;;;;;5056418;28;20033;-49
2022/06/12 10:00:39;;;;;;;4.28;2.30;;;29.20;1.00;;;;;;5070941;28;20071;-49
2022/06/12 10:03:13;;;;;;;4.35;2.80;;;29.30;1.00;;;;;;5081511;28;20051;-48
2022/06/12 10:05:51;;;;;;;3.20;2.40;;;29.50;1.00;;;;;;5086399;28;20036;-51
2022/06/12 10:08:29;;;;;;;3.47;2.58;;;29.60;1.00;;;;;;5085441;28;20477;-48
2022/06/12 10:11:17;;;;;;;4.82;3.72;;;29.40;1.00;;;;;;5082585;28;20078;-45
2022/06/12 10:14:00;;;;;;;2.38;2.13;;;29.40;1.00;;;;;;5074055;28;20024;-47
2022/06/12 10:16:31;;;;;;;2.47;2.22;;;29.50;1.00;;;;;;5080553;28;20040;-44
2022/06/12 10:19:09;;;;;;;2.95;2.65;;;29.60;1.00;;;;;;5063683;28;20454;-46
2022/06/12 10:21:38;;;;;;;2.40;2.30;;;29.50;1.00;;;;;;5079036;28;20032;-48
2022/06/12 10:24:05;;;;;;;2.80;2.60;;;29.60;1.00;;;;;;5066898;28;20032;-45
2022/06/12 10:26:32;;;;;;;3.30;2.42;;;29.70;1.00;;;;;;5085649;28;20020;-46
2022/06/12 10:29:15;;;;;;;3.33;2.60;;;29.80;1.00;;;;;;5069621;28;20105;-47
2022/06/12 10:31:54;;;;;;;4.85;3.50;;;29.90;1.00;;;;;;5085277;28;20024;-49
2022/06/12 10:34:23;;;;;;;2.55;2.45;;;29.90;1.00;;;;;;5063153;28;20089;-47
2022/06/12 10:36:49;;;;;;;3.17;2.90;;;30.20;1.00;;;;;;5084417;28;20472;-46
2022/06/12 10:39:20;;;;;;;4.22;2.97;;;30.00;1.00;;;;;;5082742;28;20115;-48
2022/06/12 10:41:55;;;;;;;3.40;2.80;;;30.00;1.00;;;;;;5080756;28;20063;-45
2022/06/12 10:44:32;;;;;;;3.10;2.28;;;30.30;1.00;;;;;;5073445;28;20028;-51
2022/06/12 10:47:09;;;;;;;4.88;2.92;;;30.30;1.00;;;;;;5078193;28;20021;-46
2022/06/12 10:49:35;;;;;;;3.83;2.70;;;30.20;1.00;;;;;;5073884;28;20033;-51
2022/06/12 10:52:18;;;;;;;2.80;2.65;;;30.30;1.00;;;;;;5063765;28;20032;-47
2022/06/12 10:54:45;;;;;;;3.88;2.35;;;30.40;1.00;;;;;;5076878;28;20063;-47
2022/06/12 10:57:35;;;;;;;4.85;2.35;;;30.40;1.00;;;;;;5077654;28;20051;-48
2022/06/12 11:00:04;;;;;;;3.45;2.60;;;30.50;1.00;;;;;;5079294;28;20023;-45
2022/06/12 11:02:48;;;;;;;2.88;2.25;;;30.60;1.00;;;;;;5057400;28;20045;-51
2022/06/12 11:05:25;;;;;;;2.65;2.47;;;30.70;1.00;;;;;;5079438;28;20040;-46
2022/06/12 11:08:05;;;;;;;4.63;3.08;;;30.70;1.00;;;;;;5087809;28;20025;-49
2022/06/12 11:11:14;;;;;;;3.60;2.45;;;30.80;1.00;;;;;;5076450;28;20032;-47
2022/06/12 11:13:53;;;;;;;2.55;2.35;;;31.10;1.00;;;;;;5075826;28;21593;-45
2022/06/12 11:16:46;;;;;;;2.67;2.53;;;31.10;1.00;;;;;;5076610;28;20134;-47
2022/06/12 11:19:21;;;;;;;2.78;2.13;;;31.20;1.00;;;;;;5054213;28;20390;-45
2022/06/12 11:22:11;;;;;;;3.72;3.03;;;32.20;1.00;;;;;;5072990;28;20393;-45
2022/06/12 11:24:55;;;;;;;3.42;3.13;;;33.90;1.00;;;;;;5076808;28;20077;-46
2022/06/12 11:27:32;;;;;;;;;;;33.30;1.00;;;;;;5083589;28;20127;-45
2022/06/12 11:30:04;;;;;;;3.00;2.80;;;33.00;1.00;;;;;;5044966;28;19916;-47
2022/06/12 11:36:11;;;;;;;4.07;2.90;;;34.60;1.00;;;;;;5077911;28;20512;-47
2022/06/12 11:38:55;;;;;;;3.90;3.60;;;35.40;1.00;;;;;;5087002;28;20465;-45
2022/06/12 11:41:58;;;;;;;3.40;3.08;;;34.50;1.00;;;;;;5081141;28;20024;-52
2022/06/12 11:45:05;;;;;;;5.43;3.00;;;35.20;1.00;;;;;;5072920;28;20021;-47
2022/06/12 11:47:43;;;;;;;4.20;3.88;;;35.60;1.00;;;;;;5064467;28;20025;-50
2022/06/12 11:50:29;;;;;;;4.45;4.05;;;35.70;1.00;;;;;;5062307;28;20390;-50
2022/06/12 11:53:18;;;;;;;5.45;3.33;;;35.50;1.00;;;;;;5072090;28;20093;-49
2022/06/12 11:55:57;;;;;;;4.00;3.70;;;35.70;1.00;;;;;;5075554;28;20043;-51
2022/06/12 11:58:48;;;;;;;4.18;3.78;;;35.70;1.00;;;;;;5082238;28;20028;-48
2022/06/12 12:01:25;;;;;;;5.07;3.92;;;35.70;1.00;;;;;;5074038;28;20082;-50
2022/06/12 12:03:50;;;;;;;4.22;3.92;;;36.20;1.00;;;;;;5073421;28;20477;-55
2022/06/12 12:06:37;;;;;;;3.40;3.20;;;36.90;1.00;;;;;;5073724;28;20028;-49
2022/06/12 12:09:19;;;;;;;5.57;3.90;;;37.40;1.00;;;;;;5079062;28;20036;-49
2022/06/12 12:11:53;;;;;;;4.93;3.60;;;37.00;1.00;;;;;;5062933;28;20081;-48
2022/06/12 12:14:24;;;;;;;6.25;3.90;;;36.40;1.00;;;;;;5074102;28;20035;-50
2022/06/12 12:17:03;;;;;;;3.90;3.60;;;37.00;1.00;;;;;;5086589;28;20135;-51
2022/06/12 12:19:44;;;;;;;4.43;3.58;;;37.00;1.00;;;;;;5082865;28;20443;-51
2022/06/12 12:22:31;;;;;;;5.35;4.28;;;36.80;1.00;;;;;;5074679;28;20127;-47
2022/06/12 12:25:03;;;;;;;4.50;4.07;;;36.10;1.00;;;;;;5068091;28;20059;-52
2022/06/12 12:27:46;;;;;;;4.82;4.53;;;36.00;1.00;;;;;;5088237;28;20035;-49
2022/06/12 12:30:21;;;;;;;4.75;4.28;;;36.00;1.00;;;;;;5092587;28;20020;-46
2022/06/12 12:32:49;;;;;;;4.60;4.20;;;35.90;1.00;;;;;;5091469;28;20425;-47
2022/06/12 12:43:33;;;;;;;5.28;4.88;;;39.90;1.00;;;;;;5083899;28;20031;-46
2022/06/12 12:46:05;;;;;;;4.68;4.28;;;40.70;1.00;;;;;;5085405;28;20030;-49
2022/06/12 12:48:44;;;;;;;5.15;4.65;;;41.10;1.00;;;;;;5082835;28;20028;-46
2022/06/12 12:51:21;;;;;;;4.18;3.88;;;41.80;1.00;;;;;;5086158;28;20392;-50
2022/06/12 12:53:47;;;;;;;4.55;4.22;;;43.20;1.00;;;;;;5077568;28;20063;-47
2022/06/12 12:56:15;;;;;;;5.00;4.20;;;43.40;1.00;;;;;;5085297;28;20067;-50
2022/06/12 12:58:55;;;;;;;4.72;4.43;;;42.80;1.00;;;;;;5071173;28;20027;-48
2022/06/12 13:01:26;;;;;;;4.32;4.00;;;41.80;1.00;;;;;;5081216;28;20031;-47
2022/06/12 13:03:57;;;;;;;4.70;4.30;;;40.70;1.00;;;;;;5076137;28;20036;-48
2022/06/12 13:06:38;;;;;;;4.93;4.53;;;39.80;1.00;;;;;;5086586;28;20028;-48
2022/06/12 13:09:27;;;;;;;4.70;4.25;;;38.50;1.00;;;;;;5084614;28;20107;-47
2022/06/12 13:12:03;;;;;;;4.47;4.20;;;38.70;1.00;;;;;;5067478;28;20035;-48
2022/06/12 13:15:00;;;;;;;4.80;4.38;;;38.90;1.00;;;;;;5083150;28;20023;-46
2022/06/12 13:17:35;;;;;;;5.47;4.20;;;39.60;1.00;;;;;;5081319;28;20490;-49
2022/06/12 13:20:20;;;;;;;4.38;4.07;;;39.80;1.00;;;;;;5076853;28;20115;-48
2022/06/12 13:22:48;;;;;;;4.97;3.97;;;38.90;1.00;;;;;;5081754;28;20025;-50
2022/06/12 13:25:24;;;;;;;4.22;3.90;;;38.70;1.00;;;;;;5076764;28;20032;-46
2022/06/12 13:27:55;;;;;;;4.97;3.95;;;37.90;1.00;;;;;;5081991;28;20036;-50
2022/06/12 13:30:25;;;;;;;4.20;3.80;;;38.10;1.00;;;;;;5077514;28;20020;-50
2022/06/12 13:32:50;;;;;;;3.67;3.50;;;38.30;1.00;;;;;;5075073;28;20021;-48
2022/06/12 13:35:29;;;;;;;4.72;3.97;;;38.30;1.00;;;;;;5077852;28;20030;-54
2022/06/12 13:38:05;;;;;;;4.38;3.97;;;38.30;1.00;;;;;;5084181;28;20113;-49
2022/06/12 13:40:34;;;;;;;8.20;3.60;;;38.50;1.00;;;;;;5074999;28;20020;-48
2022/06/12 13:43:20;;;;;;;3.90;3.50;;;38.90;1.00;;;;;;5087163;28;20032;-47
2022/06/12 13:45:55;;;;;;;3.60;3.40;;;39.10;1.00;;;;;;5082401;28;20104;-49
2022/06/12 13:48:24;;;;;;;4.75;3.65;;;39.70;1.00;;;;;;5086704;28;20036;-52
2022/06/12 13:50:58;;;;;;;4.22;3.80;;;39.40;1.00;;;;;;5076747;28;20025;-51
2022/06/12 13:53:23;;;;;;;4.45;3.28;;;38.80;1.00;;;;;;5083902;28;20024;-48
2022/06/12 13:55:58;;;;;;;3.55;3.35;;;39.80;1.00;;;;;;5076254;28;20477;-52
2022/06/12 13:58:25;;;;;;;3.97;3.28;;;40.40;1.00;;;;;;5084595;28;20056;-50
2022/06/12 14:00:54;;;;;;;3.90;3.60;;;41.00;1.00;;;;;;5089110;28;20050;-51
2022/06/12 14:03:35;;;;;;;3.78;3.58;;;41.40;1.00;;;;;;5074328;28;20048;-50
2022/06/12 14:06:05;;;;;;;4.05;3.72;;;41.40;1.00;;;;;;5076056;28;20181;-49